Pyle, United Kingdom
Current Conditions -  °F | °C
As of 1:50 PM on Thursday 30 Oct 2014 (Local Time) from EGDX Reporting Station
Haze Haze  
Wind Chill: 63°   Ceiling: 4100
Heat Index: 63°   Visibility: 5mi
Dew Point: 59°   Wind: 9mph
Humidity: 88%   Direction: 150°SSE
Pressure: 30"   Gusts: NA
Location:  51.52°N, 3.7°W
Report Text: EGDX 301350Z 15008KT 8000 HZ FEW013 BKN041 17/15 Q1016 BLU
Loading
Personal Weather Stations






























Interactive Weather Map
Tropical Storm Tracking
New forecast layout! Learn more

10-Day Weather Forecast

Advertisements
Track Severe Weather on mobile